sensor_id;sensor_type;location;lat;lon;timestamp;P1;durP1;ratioP1;P2;durP2;ratioP2
32874;SDS011;40468;42.128;24.750;2023-01-08T07:30:49;17.02;;;10.07;;
32874;SDS011;40468;42.128;24.750;2023-01-08T07:32:21;16.27;;;9.23;;
32874;SDS011;40468;42.128;24.750;2023-01-08T07:33:53;21.65;;;9.52;;
32874;SDS011;40468;42.128;24.750;2023-01-08T07:35:25;21.75;;;9.38;;
32874;SDS011;40468;42.128;24.750;2023-01-08T07:36:57;24.48;;;10.98;;
32874;SDS011;40468;42.128;24.750;2023-01-08T07:38:29;22.70;;;10.25;;
32874;SDS011;40468;42.128;24.750;2023-01-08T07:40:01;20.80;;;9.70;;
32874;SDS011;40468;42.128;24.750;2023-01-08T07:41:33;23.75;;;11.10;;
32874;SDS011;40468;42.128;24.750;2023-01-08T07:43:05;19.15;;;10.23;;
32874;SDS011;40468;42.128;24.750;2023-01-08T07:44:36;23.88;;;10.57;;
32874;SDS011;40468;42.128;24.750;2023-01-08T07:46:10;19.90;;;10.18;;
32874;SDS011;40468;42.128;24.750;2023-01-08T07:47:41;22.13;;;11.60;;
32874;SDS011;40468;42.128;24.750;2023-01-08T07:49:13;23.75;;;10.63;;
32874;SDS011;40468;42.128;24.750;2023-01-08T07:50:45;23.73;;;11.23;;
32874;SDS011;40468;42.128;24.750;2023-01-08T07:52:17;24.58;;;11.55;;
32874;SDS011;40468;42.128;24.750;2023-01-08T07:53:49;27.08;;;11.85;;
32874;SDS011;40468;42.128;24.750;2023-01-08T07:55:21;21.05;;;10.80;;
32874;SDS011;40468;42.128;24.750;2023-01-08T07:56:53;26.60;;;12.23;;
32874;SDS011;40468;42.128;24.750;2023-01-08T07:58:25;23.60;;;11.55;;
32874;SDS011;40468;42.128;24.750;2023-01-08T07:59:57;24.63;;;11.35;;
32874;SDS011;40468;42.128;24.750;2023-01-08T08:01:31;25.25;;;11.07;;
32874;SDS011;40468;42.128;24.750;2023-01-08T08:03:03;26.67;;;11.57;;
32874;SDS011;40468;42.128;24.750;2023-01-08T08:04:36;25.77;;;10.38;;
32874;SDS011;40468;42.128;24.750;2023-01-08T08:06:08;21.65;;;10.50;;
32874;SDS011;40468;42.128;24.750;2023-01-08T08:07:40;21.30;;;10.65;;
32874;SDS011;40468;42.128;24.750;2023-01-08T08:09:12;22.92;;;11.15;;
32874;SDS011;40468;42.128;24.750;2023-01-08T08:10:44;18.27;;;10.25;;
32874;SDS011;40468;42.128;24.750;2023-01-08T08:12:17;20.13;;;10.10;;
32874;SDS011;40468;42.128;24.750;2023-01-08T08:13:48;21.52;;;10.65;;
32874;SDS011;40468;42.128;24.750;2023-01-08T08:15:20;20.85;;;11.02;;
32874;SDS011;40468;42.128;24.750;2023-01-08T08:16:54;19.25;;;10.82;;
32874;SDS011;40468;42.128;24.750;2023-01-08T08:18:25;26.10;;;11.88;;
32874;SDS011;40468;42.128;24.750;2023-01-08T08:19:57;18.55;;;10.85;;
32874;SDS011;40468;42.128;24.750;2023-01-08T08:21:29;20.52;;;10.93;;
32874;SDS011;40468;42.128;24.750;2023-01-08T08:23:01;22.05;;;10.77;;
32874;SDS011;40468;42.128;24.750;2023-01-08T08:26:06;24.17;;;12.00;;
32874;SDS011;40468;42.128;24.750;2023-01-08T08:27:38;22.10;;;11.02;;
32874;SDS011;40468;42.128;24.750;2023-01-08T08:29:10;27.33;;;11.70;;
32874;SDS011;40468;42.128;24.750;2023-01-08T08:30:42;21.48;;;11.63;;
32874;SDS011;40468;42.128;24.750;2023-01-08T08:32:15;23.13;;;11.20;;
32874;SDS011;40468;42.128;24.750;2023-01-08T08:33:47;24.58;;;11.73;;
32874;SDS011;40468;42.128;24.750;2023-01-08T08:35:19;25.40;;;12.65;;
32874;SDS011;40468;42.128;24.750;2023-01-08T08:36:51;19.70;;;10.02;;
32874;SDS011;40468;42.128;24.750;2023-01-08T08:38:23;20.10;;;10.63;;
32874;SDS011;40468;42.128;24.750;2023-01-08T08:39:55;18.55;;;10.77;;
32874;SDS011;40468;42.128;24.750;2023-01-08T08:41:27;20.48;;;10.13;;
32874;SDS011;40468;42.128;24.750;2023-01-08T08:43:00;18.38;;;10.25;;
32874;SDS011;40468;42.128;24.750;2023-01-08T08:46:04;23.65;;;9.95;;
32874;SDS011;40468;42.128;24.750;2023-01-08T08:47:37;21.98;;;10.70;;
32874;SDS011;40468;42.128;24.750;2023-01-08T08:49:09;23.25;;;9.95;;
32874;SDS011;40468;42.128;24.750;2023-01-08T08:50:41;25.58;;;10.13;;
32874;SDS011;40468;42.128;24.750;2023-01-08T08:52:13;14.50;;;8.50;;
32874;SDS011;40468;42.128;24.750;2023-01-08T08:53:45;18.17;;;8.65;;
32874;SDS011;40468;42.128;24.750;2023-01-08T08:55:17;12.05;;;6.65;;
32874;SDS011;40468;42.128;24.750;2023-01-08T08:56:49;11.30;;;6.07;;
32874;SDS011;40468;42.128;24.750;2023-01-08T08:58:21;13.88;;;6.60;;
32874;SDS011;40468;42.128;24.750;2023-01-08T08:59:53;17.10;;;7.13;;
32874;SDS011;40468;42.128;24.750;2023-01-08T09:01:25;15.95;;;7.13;;
32874;SDS011;40468;42.128;24.750;2023-01-08T09:02:58;14.27;;;6.80;;
32874;SDS011;40468;42.128;24.750;2023-01-08T09:04:30;17.23;;;7.55;;
32874;SDS011;40468;42.128;24.750;2023-01-08T09:06:03;12.38;;;6.95;;
32874;SDS011;40468;42.128;24.750;2023-01-08T09:07:36;18.15;;;7.75;;
32874;SDS011;40468;42.128;24.750;2023-01-08T09:09:08;19.58;;;7.72;;
32874;SDS011;40468;42.128;24.750;2023-01-08T09:10:40;19.02;;;8.27;;
32874;SDS011;40468;42.128;24.750;2023-01-08T09:12:12;20.45;;;8.30;;
32874;SDS011;40468;42.128;24.750;2023-01-08T09:13:44;18.35;;;7.22;;
32874;SDS011;40468;42.128;24.750;2023-01-08T09:15:16;15.68;;;7.93;;
32874;SDS011;40468;42.128;24.750;2023-01-08T09:16:48;20.85;;;9.60;;
32874;SDS011;40468;42.128;24.750;2023-01-08T09:18:21;17.10;;;8.20;;
32874;SDS011;40468;42.128;24.750;2023-01-08T09:19:53;13.82;;;6.85;;
32874;SDS011;40468;42.128;24.750;2023-01-08T09:21:25;15.93;;;7.38;;
32874;SDS011;40468;42.128;24.750;2023-01-08T09:22:57;13.77;;;7.20;;
32874;SDS011;40468;42.128;24.750;2023-01-08T09:24:30;18.48;;;9.20;;
32874;SDS011;40468;42.128;24.750;2023-01-08T09:26:02;19.05;;;10.68;;
32874;SDS011;40468;42.128;24.750;2023-01-08T09:27:35;13.13;;;6.72;;
32874;SDS011;40468;42.128;24.750;2023-01-08T09:29:07;16.40;;;7.25;;
32874;SDS011;40468;42.128;24.750;2023-01-08T09:30:39;13.65;;;6.80;;
32874;SDS011;40468;42.128;24.750;2023-01-08T09:32:11;12.35;;;6.63;;
32874;SDS011;40468;42.128;24.750;2023-01-08T09:33:45;14.07;;;6.28;;
32874;SDS011;40468;42.128;24.750;2023-01-08T09:35:18;11.55;;;5.18;;
32874;SDS011;40468;42.128;24.750;2023-01-08T09:36:50;15.02;;;6.35;;
32874;SDS011;40468;42.128;24.750;2023-01-08T09:38:21;11.93;;;6.25;;
32874;SDS011;40468;42.128;24.750;2023-01-08T09:39:53;10.77;;;5.47;;
32874;SDS011;40468;42.128;24.750;2023-01-08T09:41:26;12.02;;;5.80;;
32874;SDS011;40468;42.128;24.750;2023-01-08T09:43:01;12.25;;;5.38;;
32874;SDS011;40468;42.128;24.750;2023-01-08T09:44:36;10.98;;;5.53;;
32874;SDS011;40468;42.128;24.750;2023-01-08T09:46:10;8.90;;;5.03;;
32874;SDS011;40468;42.128;24.750;2023-01-08T09:47:43;8.25;;;4.72;;
32874;SDS011;40468;42.128;24.750;2023-01-08T09:49:20;9.20;;;4.50;;
32874;SDS011;40468;42.128;24.750;2023-01-08T09:50:54;8.45;;;4.93;;
32874;SDS011;40468;42.128;24.750;2023-01-08T09:52:26;9.45;;;5.45;;
32874;SDS011;40468;42.128;24.750;2023-01-08T09:54:00;13.50;;;6.90;;
32874;SDS011;40468;42.128;24.750;2023-01-08T09:57:05;10.30;;;5.25;;
32874;SDS011;40468;42.128;24.750;2023-01-08T09:58:42;11.00;;;5.45;;
32874;SDS011;40468;42.128;24.750;2023-01-08T10:00:16;8.60;;;5.05;;
32874;SDS011;40468;42.128;24.750;2023-01-08T10:01:51;13.00;;;6.88;;
32874;SDS011;40468;42.128;24.750;2023-01-08T10:03:24;11.55;;;5.00;;
32874;SDS011;40468;42.128;24.750;2023-01-08T10:05:09;10.10;;;6.53;;
32874;SDS011;40468;42.128;24.750;2023-01-08T10:06:45;9.90;;;5.30;;
32874;SDS011;40468;42.128;24.750;2023-01-08T10:08:20;9.80;;;5.03;;
32874;SDS011;40468;42.128;24.750;2023-01-08T10:09:53;7.38;;;4.88;;
32874;SDS011;40468;42.128;24.750;2023-01-08T10:11:26;7.60;;;4.95;;
32874;SDS011;40468;42.128;24.750;2023-01-08T10:13:03;9.60;;;5.28;;
32874;SDS011;40468;42.128;24.750;2023-01-08T10:14:47;8.63;;;4.80;;
32874;SDS011;40468;42.128;24.750;2023-01-08T10:16:21;8.60;;;4.35;;
32874;SDS011;40468;42.128;24.750;2023-01-08T10:17:59;9.32;;;4.60;;
32874;SDS011;40468;42.128;24.750;2023-01-08T10:19:34;9.82;;;5.00;;
32874;SDS011;40468;42.128;24.750;2023-01-08T10:21:09;9.00;;;5.05;;
32874;SDS011;40468;42.128;24.750;2023-01-08T10:22:44;9.27;;;5.35;;
32874;SDS011;40468;42.128;24.750;2023-01-08T10:24:28;11.18;;;5.72;;
32874;SDS011;40468;42.128;24.750;2023-01-08T10:26:01;9.68;;;5.10;;
32874;SDS011;40468;42.128;24.750;2023-01-08T10:27:36;10.63;;;4.97;;
32874;SDS011;40468;42.128;24.750;2023-01-08T10:29:17;18.60;;;8.25;;
32874;SDS011;40468;42.128;24.750;2023-01-08T10:30:50;37.67;;;16.67;;
32874;SDS011;40468;42.128;24.750;2023-01-08T10:32:24;20.85;;;9.00;;
32874;SDS011;40468;42.128;24.750;2023-01-08T10:34:06;11.55;;;6.18;;
32874;SDS011;40468;42.128;24.750;2023-01-08T10:35:40;31.88;;;14.40;;
32874;SDS011;40468;42.128;24.750;2023-01-08T10:38:50;10.13;;;5.90;;
32874;SDS011;40468;42.128;24.750;2023-01-08T10:40:27;11.23;;;5.47;;
32874;SDS011;40468;42.128;24.750;2023-01-08T10:42:04;10.80;;;5.50;;
32874;SDS011;40468;42.128;24.750;2023-01-08T10:43:41;12.05;;;5.80;;
32874;SDS011;40468;42.128;24.750;2023-01-08T10:45:26;14.43;;;6.50;;
32874;SDS011;40468;42.128;24.750;2023-01-08T10:46:59;11.27;;;6.53;;
32874;SDS011;40468;42.128;24.750;2023-01-08T10:48:33;8.55;;;5.40;;
32874;SDS011;40468;42.128;24.750;2023-01-08T10:50:12;14.73;;;5.60;;
32874;SDS011;40468;42.128;24.750;2023-01-08T10:51:51;11.00;;;5.68;;
32874;SDS011;40468;42.128;24.750;2023-01-08T10:53:27;10.05;;;5.43;;
32874;SDS011;40468;42.128;24.750;2023-01-08T10:55:10;10.38;;;5.78;;
32874;SDS011;40468;42.128;24.750;2023-01-08T10:56:43;11.00;;;5.78;;
32874;SDS011;40468;42.128;24.750;2023-01-08T10:58:15;11.80;;;5.57;;
32874;SDS011;40468;42.128;24.750;2023-01-08T10:59:47;8.85;;;6.15;;
32874;SDS011;40468;42.128;24.750;2023-01-08T11:01:21;14.18;;;5.80;;
32874;SDS011;40468;42.128;24.750;2023-01-08T11:02:55;10.77;;;5.72;;
32874;SDS011;40468;42.128;24.750;2023-01-08T11:04:30;10.85;;;6.13;;
32874;SDS011;40468;42.128;24.750;2023-01-08T11:06:09;12.00;;;5.85;;
32874;SDS011;40468;42.128;24.750;2023-01-08T11:07:42;13.35;;;7.05;;
32874;SDS011;40468;42.128;24.750;2023-01-08T11:09:22;16.88;;;5.78;;
32874;SDS011;40468;42.128;24.750;2023-01-08T11:10:56;12.85;;;5.63;;
32874;SDS011;40468;42.128;24.750;2023-01-08T11:12:32;13.38;;;6.72;;
32874;SDS011;40468;42.128;24.750;2023-01-08T11:14:19;13.75;;;6.90;;
32874;SDS011;40468;42.128;24.750;2023-01-08T11:15:58;12.90;;;5.75;;
32874;SDS011;40468;42.128;24.750;2023-01-08T11:17:33;10.38;;;5.40;;
32874;SDS011;40468;42.128;24.750;2023-01-08T11:19:13;14.60;;;5.43;;
32874;SDS011;40468;42.128;24.750;2023-01-08T11:20:48;9.45;;;5.28;;
32874;SDS011;40468;42.128;24.750;2023-01-08T11:22:21;10.57;;;5.57;;
32874;SDS011;40468;42.128;24.750;2023-01-08T11:24:09;10.00;;;5.35;;
32874;SDS011;40468;42.128;24.750;2023-01-08T11:25:58;7.97;;;5.53;;
32874;SDS011;40468;42.128;24.750;2023-01-08T11:27:38;9.30;;;5.32;;
32874;SDS011;40468;42.128;24.750;2023-01-08T11:29:14;8.90;;;5.28;;
32874;SDS011;40468;42.128;24.750;2023-01-08T11:30:50;16.08;;;5.43;;
32874;SDS011;40468;42.128;24.750;2023-01-08T11:32:29;11.02;;;5.88;;
32874;SDS011;40468;42.128;24.750;2023-01-08T11:34:12;9.68;;;5.28;;
32874;SDS011;40468;42.128;24.750;2023-01-08T11:35:49;9.25;;;5.25;;
32874;SDS011;40468;42.128;24.750;2023-01-08T11:37:25;11.95;;;5.65;;
32874;SDS011;40468;42.128;24.750;2023-01-08T11:38:58;13.20;;;6.00;;
32874;SDS011;40468;42.128;24.750;2023-01-08T11:40:32;11.10;;;5.95;;
32874;SDS011;40468;42.128;24.750;2023-01-08T11:42:18;14.50;;;6.07;;
32874;SDS011;40468;42.128;24.750;2023-01-08T11:44:02;13.10;;;6.28;;
32874;SDS011;40468;42.128;24.750;2023-01-08T11:45:49;14.02;;;5.95;;
32874;SDS011;40468;42.128;24.750;2023-01-08T11:47:32;10.93;;;5.68;;
32874;SDS011;40468;42.128;24.750;2023-01-08T11:49:22;13.15;;;6.03;;
32874;SDS011;40468;42.128;24.750;2023-01-08T11:51:13;42.30;;;20.85;;
32874;SDS011;40468;42.128;24.750;2023-01-08T11:53:06;54.63;;;26.40;;
32874;SDS011;40468;42.128;24.750;2023-01-08T11:54:50;60.35;;;27.85;;
32874;SDS011;40468;42.128;24.750;2023-01-08T11:56:38;29.00;;;14.73;;
32874;SDS011;40468;42.128;24.750;2023-01-08T11:58:29;21.45;;;9.95;;
32874;SDS011;40468;42.128;24.750;2023-01-08T12:00:15;54.70;;;25.42;;
32874;SDS011;40468;42.128;24.750;2023-01-08T12:02:02;14.95;;;7.60;;
32874;SDS011;40468;42.128;24.750;2023-01-08T12:03:45;12.43;;;6.88;;
32874;SDS011;40468;42.128;24.750;2023-01-08T12:05:27;12.77;;;6.00;;
32874;SDS011;40468;42.128;24.750;2023-01-08T12:07:02;136.63;;;61.28;;
32874;SDS011;40468;42.128;24.750;2023-01-08T12:08:46;15.93;;;8.60;;
32874;SDS011;40468;42.128;24.750;2023-01-08T12:10:28;120.60;;;56.33;;
32874;SDS011;40468;42.128;24.750;2023-01-08T12:12:12;25.95;;;15.60;;
32874;SDS011;40468;42.128;24.750;2023-01-08T12:13:54;25.10;;;11.75;;
32874;SDS011;40468;42.128;24.750;2023-01-08T12:15:42;57.15;;;28.80;;
32874;SDS011;40468;42.128;24.750;2023-01-08T12:17:24;27.67;;;14.52;;
32874;SDS011;40468;42.128;24.750;2023-01-08T12:19:16;15.45;;;6.40;;
32874;SDS011;40468;42.128;24.750;2023-01-08T12:20:54;13.60;;;6.10;;
32874;SDS011;40468;42.128;24.750;2023-01-08T12:22:35;10.20;;;5.55;;
32874;SDS011;40468;42.128;24.750;2023-01-08T12:24:16;8.30;;;4.70;;
32874;SDS011;40468;42.128;24.750;2023-01-08T12:26:06;9.13;;;5.20;;
32874;SDS011;40468;42.128;24.750;2023-01-08T12:27:53;10.98;;;5.25;;
32874;SDS011;40468;42.128;24.750;2023-01-08T12:29:49;9.15;;;5.07;;
32874;SDS011;40468;42.128;24.750;2023-01-08T12:31:51;12.48;;;5.40;;
32874;SDS011;40468;42.128;24.750;2023-01-08T12:33:40;13.52;;;6.88;;
32874;SDS011;40468;42.128;24.750;2023-01-08T12:35:19;11.57;;;5.25;;
32874;SDS011;40468;42.128;24.750;2023-01-08T12:36:57;12.40;;;5.80;;
32874;SDS011;40468;42.128;24.750;2023-01-08T12:38:38;7.55;;;4.65;;
32874;SDS011;40468;42.128;24.750;2023-01-08T12:40:14;9.98;;;5.43;;
32874;SDS011;40468;42.128;24.750;2023-01-08T12:41:51;12.93;;;7.65;;
32874;SDS011;40468;42.128;24.750;2023-01-08T12:43:26;14.38;;;5.82;;
32874;SDS011;40468;42.128;24.750;2023-01-08T12:45:03;11.98;;;5.13;;
32874;SDS011;40468;42.128;24.750;2023-01-08T12:46:43;10.85;;;5.85;;
32874;SDS011;40468;42.128;24.750;2023-01-08T12:48:17;16.58;;;6.00;;
32874;SDS011;40468;42.128;24.750;2023-01-08T12:49:54;14.57;;;7.25;;
32874;SDS011;40468;42.128;24.750;2023-01-08T12:51:34;8.57;;;5.38;;
32874;SDS011;40468;42.128;24.750;2023-01-08T12:53:12;13.38;;;4.97;;
32874;SDS011;40468;42.128;24.750;2023-01-08T12:54:57;10.52;;;4.95;;
32874;SDS011;40468;42.128;24.750;2023-01-08T12:56:35;9.82;;;4.80;;
32874;SDS011;40468;42.128;24.750;2023-01-08T12:58:16;12.55;;;5.28;;
32874;SDS011;40468;42.128;24.750;2023-01-08T12:59:58;9.85;;;5.00;;
32874;SDS011;40468;42.128;24.750;2023-01-08T13:01:36;12.20;;;5.78;;
32874;SDS011;40468;42.128;24.750;2023-01-08T13:03:14;10.88;;;5.97;;
32874;SDS011;40468;42.128;24.750;2023-01-08T13:04:52;11.63;;;5.25;;
32874;SDS011;40468;42.128;24.750;2023-01-08T13:06:24;8.88;;;4.68;;
32874;SDS011;40468;42.128;24.750;2023-01-08T13:07:57;8.57;;;5.28;;
32874;SDS011;40468;42.128;24.750;2023-01-08T13:09:31;10.35;;;5.40;;
32874;SDS011;40468;42.128;24.750;2023-01-08T13:11:03;9.70;;;4.33;;
32874;SDS011;40468;42.128;24.750;2023-01-08T13:14:12;8.80;;;4.93;;
32874;SDS011;40468;42.128;24.750;2023-01-08T13:15:44;11.15;;;5.38;;
32874;SDS011;40468;42.128;24.750;2023-01-08T13:17:18;9.90;;;4.88;;
32874;SDS011;40468;42.128;24.750;2023-01-08T13:18:54;9.20;;;5.32;;
32874;SDS011;40468;42.128;24.750;2023-01-08T13:20:28;7.75;;;4.05;;
32874;SDS011;40468;42.128;24.750;2023-01-08T13:22:02;8.45;;;4.45;;
32874;SDS011;40468;42.128;24.750;2023-01-08T13:23:34;8.55;;;4.43;;
32874;SDS011;40468;42.128;24.750;2023-01-08T13:25:08;9.02;;;4.63;;
32874;SDS011;40468;42.128;24.750;2023-01-08T13:26:56;12.98;;;4.53;;
32874;SDS011;40468;42.128;24.750;2023-01-08T13:28:41;7.57;;;3.88;;
32874;SDS011;40468;42.128;24.750;2023-01-08T13:30:35;7.47;;;4.00;;
32874;SDS011;40468;42.128;24.750;2023-01-08T13:33:55;9.52;;;4.38;;
32874;SDS011;40468;42.128;24.750;2023-01-08T13:35:28;9.77;;;5.28;;
32874;SDS011;40468;42.128;24.750;2023-01-08T13:37:01;11.48;;;4.63;;
32874;SDS011;40468;42.128;24.750;2023-01-08T13:38:33;9.10;;;4.15;;
32874;SDS011;40468;42.128;24.750;2023-01-08T13:42:22;6.80;;;4.13;;
32874;SDS011;40468;42.128;24.750;2023-01-08T13:43:59;10.40;;;4.00;;
32874;SDS011;40468;42.128;24.750;2023-01-08T13:45:34;8.45;;;4.13;;
32874;SDS011;40468;42.128;24.750;2023-01-08T13:47:15;8.18;;;3.58;;
32874;SDS011;40468;42.128;24.750;2023-01-08T13:48:53;13.07;;;3.78;;
32874;SDS011;40468;42.128;24.750;2023-01-08T13:50:29;6.90;;;3.88;;
32874;SDS011;40468;42.128;24.750;2023-01-08T13:52:01;7.97;;;3.78;;
32874;SDS011;40468;42.128;24.750;2023-01-08T13:53:33;11.00;;;4.80;;
32874;SDS011;40468;42.128;24.750;2023-01-08T13:55:10;8.95;;;3.65;;
32874;SDS011;40468;42.128;24.750;2023-01-08T13:56:45;6.80;;;3.33;;
32874;SDS011;40468;42.128;24.750;2023-01-08T13:58:23;6.90;;;3.25;;
32874;SDS011;40468;42.128;24.750;2023-01-08T13:59:57;6.60;;;3.75;;
32874;SDS011;40468;42.128;24.750;2023-01-08T14:01:30;6.53;;;3.80;;
32874;SDS011;40468;42.128;24.750;2023-01-08T14:03:02;9.05;;;4.47;;
32874;SDS011;40468;42.128;24.750;2023-01-08T14:04:35;10.70;;;4.78;;
32874;SDS011;40468;42.128;24.750;2023-01-08T14:06:12;9.73;;;4.85;;
32874;SDS011;40468;42.128;24.750;2023-01-08T14:07:47;9.85;;;4.38;;
32874;SDS011;40468;42.128;24.750;2023-01-08T14:09:20;9.23;;;4.05;;
32874;SDS011;40468;42.128;24.750;2023-01-08T14:10:53;8.45;;;4.00;;
32874;SDS011;40468;42.128;24.750;2023-01-08T14:12:25;7.18;;;3.95;;
32874;SDS011;40468;42.128;24.750;2023-01-08T14:13:58;9.55;;;4.63;;
32874;SDS011;40468;42.128;24.750;2023-01-08T14:15:31;8.23;;;3.83;;
32874;SDS011;40468;42.128;24.750;2023-01-08T14:17:05;10.65;;;5.47;;
32874;SDS011;40468;42.128;24.750;2023-01-08T14:18:45;9.02;;;4.65;;
32874;SDS011;40468;42.128;24.750;2023-01-08T14:20:27;14.50;;;5.60;;
32874;SDS011;40468;42.128;24.750;2023-01-08T14:22:02;15.18;;;9.23;;
32874;SDS011;40468;42.128;24.750;2023-01-08T14:23:45;11.32;;;7.45;;
32874;SDS011;40468;42.128;24.750;2023-01-08T14:26:50;15.13;;;7.78;;
32874;SDS011;40468;42.128;24.750;2023-01-08T14:28:23;14.00;;;7.38;;
32874;SDS011;40468;42.128;24.750;2023-01-08T14:29:55;17.25;;;10.23;;
32874;SDS011;40468;42.128;24.750;2023-01-08T14:31:28;15.18;;;8.35;;
32874;SDS011;40468;42.128;24.750;2023-01-08T14:33:00;13.10;;;6.95;;
32874;SDS011;40468;42.128;24.750;2023-01-08T14:34:32;9.43;;;5.65;;
32874;SDS011;40468;42.128;24.750;2023-01-08T14:36:10;10.93;;;5.43;;
32874;SDS011;40468;42.128;24.750;2023-01-08T14:37:42;11.05;;;5.20;;
32874;SDS011;40468;42.128;24.750;2023-01-08T14:39:19;12.80;;;5.10;;
32874;SDS011;40468;42.128;24.750;2023-01-08T14:40:56;11.82;;;5.28;;
32874;SDS011;40468;42.128;24.750;2023-01-08T14:42:31;12.40;;;6.20;;
32874;SDS011;40468;42.128;24.750;2023-01-08T14:44:12;12.45;;;5.57;;
32874;SDS011;40468;42.128;24.750;2023-01-08T14:45:45;16.67;;;8.35;;
32874;SDS011;40468;42.128;24.750;2023-01-08T14:47:18;15.75;;;6.97;;
32874;SDS011;40468;42.128;24.750;2023-01-08T14:48:57;12.57;;;6.07;;
32874;SDS011;40468;42.128;24.750;2023-01-08T14:50:31;10.23;;;5.22;;
32874;SDS011;40468;42.128;24.750;2023-01-08T14:52:07;11.55;;;5.80;;
32874;SDS011;40468;42.128;24.750;2023-01-08T14:53:44;11.57;;;6.30;;
32874;SDS011;40468;42.128;24.750;2023-01-08T14:55:19;15.70;;;6.07;;
32874;SDS011;40468;42.128;24.750;2023-01-08T14:56:52;12.10;;;6.00;;
32874;SDS011;40468;42.128;24.750;2023-01-08T14:58:28;14.10;;;6.47;;
32874;SDS011;40468;42.128;24.750;2023-01-08T15:00:06;14.70;;;7.07;;
32874;SDS011;40468;42.128;24.750;2023-01-08T15:01:49;13.90;;;6.70;;
32874;SDS011;40468;42.128;24.750;2023-01-08T15:03:30;13.65;;;5.38;;
32874;SDS011;40468;42.128;24.750;2023-01-08T15:05:12;15.32;;;6.05;;
32874;SDS011;40468;42.128;24.750;2023-01-08T15:06:47;17.40;;;7.20;;
32874;SDS011;40468;42.128;24.750;2023-01-08T15:08:22;19.80;;;7.03;;
32874;SDS011;40468;42.128;24.750;2023-01-08T15:09:57;18.55;;;6.78;;
32874;SDS011;40468;42.128;24.750;2023-01-08T15:11:31;16.15;;;7.28;;
32874;SDS011;40468;42.128;24.750;2023-01-08T15:13:21;15.18;;;8.02;;
32874;SDS011;40468;42.128;24.750;2023-01-08T15:14:54;23.35;;;8.80;;
32874;SDS011;40468;42.128;24.750;2023-01-08T15:16:27;18.70;;;9.48;;
32874;SDS011;40468;42.128;24.750;2023-01-08T15:18:03;28.98;;;13.68;;
32874;SDS011;40468;42.128;24.750;2023-01-08T15:19:38;27.25;;;13.48;;
32874;SDS011;40468;42.128;24.750;2023-01-08T15:21:16;34.22;;;13.50;;
32874;SDS011;40468;42.128;24.750;2023-01-08T15:22:49;35.97;;;16.27;;
32874;SDS011;40468;42.128;24.750;2023-01-08T15:24:23;46.58;;;20.27;;
32874;SDS011;40468;42.128;24.750;2023-01-08T15:25:59;60.50;;;28.10;;
32874;SDS011;40468;42.128;24.750;2023-01-08T15:27:31;47.28;;;23.90;;
32874;SDS011;40468;42.128;24.750;2023-01-08T15:29:06;35.72;;;17.98;;
32874;SDS011;40468;42.128;24.750;2023-01-08T15:30:38;48.30;;;25.70;;
32874;SDS011;40468;42.128;24.750;2023-01-08T15:32:20;52.83;;;27.15;;
32874;SDS011;40468;42.128;24.750;2023-01-08T15:33:54;67.90;;;37.83;;
32874;SDS011;40468;42.128;24.750;2023-01-08T15:35:26;43.58;;;29.05;;
32874;SDS011;40468;42.128;24.750;2023-01-08T15:36:58;32.15;;;16.92;;
32874;SDS011;40468;42.128;24.750;2023-01-08T15:38:30;19.10;;;12.13;;
32874;SDS011;40468;42.128;24.750;2023-01-08T15:40:04;115.72;;;56.75;;
32874;SDS011;40468;42.128;24.750;2023-01-08T15:41:38;71.18;;;35.58;;
32874;SDS011;40468;42.128;24.750;2023-01-08T15:43:27;58.80;;;30.70;;
32874;SDS011;40468;42.128;24.750;2023-01-08T15:44:59;43.78;;;19.05;;
32874;SDS011;40468;42.128;24.750;2023-01-08T15:46:31;28.38;;;12.52;;
32874;SDS011;40468;42.128;24.750;2023-01-08T15:48:04;21.40;;;10.52;;
32874;SDS011;40468;42.128;24.750;2023-01-08T15:49:36;170.55;;;71.07;;
32874;SDS011;40468;42.128;24.750;2023-01-08T15:51:08;156.40;;;65.57;;
32874;SDS011;40468;42.128;24.750;2023-01-08T15:52:40;134.73;;;56.17;;
32874;SDS011;40468;42.128;24.750;2023-01-08T15:54:14;125.32;;;63.63;;
32874;SDS011;40468;42.128;24.750;2023-01-08T15:55:47;30.30;;;17.08;;
32874;SDS011;40468;42.128;24.750;2023-01-08T15:57:19;29.33;;;12.70;;
32874;SDS011;40468;42.128;24.750;2023-01-08T15:58:51;30.20;;;13.73;;
32874;SDS011;40468;42.128;24.750;2023-01-08T16:00:23;25.27;;;12.88;;
32874;SDS011;40468;42.128;24.750;2023-01-08T16:01:55;20.10;;;10.32;;
32874;SDS011;40468;42.128;24.750;2023-01-08T16:03:27;24.50;;;10.23;;
32874;SDS011;40468;42.128;24.750;2023-01-08T16:05:00;24.08;;;10.63;;
32874;SDS011;40468;42.128;24.750;2023-01-08T16:06:32;41.85;;;14.35;;
32874;SDS011;40468;42.128;24.750;2023-01-08T16:08:05;44.75;;;17.80;;
32874;SDS011;40468;42.128;24.750;2023-01-08T16:09:37;49.33;;;23.15;;
32874;SDS011;40468;42.128;24.750;2023-01-08T16:11:10;55.53;;;28.60;;
32874;SDS011;40468;42.128;24.750;2023-01-08T16:12:43;69.55;;;29.15;;
32874;SDS011;40468;42.128;24.750;2023-01-08T16:14:16;53.80;;;22.38;;
32874;SDS011;40468;42.128;24.750;2023-01-08T16:15:48;55.55;;;22.88;;
32874;SDS011;40468;42.128;24.750;2023-01-08T16:17:20;60.22;;;24.05;;
32874;SDS011;40468;42.128;24.750;2023-01-08T16:18:51;58.55;;;26.02;;
32874;SDS011;40468;42.128;24.750;2023-01-08T16:20:23;70.65;;;28.73;;
32874;SDS011;40468;42.128;24.750;2023-01-08T16:21:55;66.03;;;25.50;;
32874;SDS011;40468;42.128;24.750;2023-01-08T16:23:27;68.60;;;26.88;;
32874;SDS011;40468;42.128;24.750;2023-01-08T16:24:59;68.18;;;28.25;;
32874;SDS011;40468;42.128;24.750;2023-01-08T16:26:33;79.47;;;29.48;;
32874;SDS011;40468;42.128;24.750;2023-01-08T16:28:05;110.13;;;36.95;;
32874;SDS011;40468;42.128;24.750;2023-01-08T16:29:37;109.95;;;35.42;;
32874;SDS011;40468;42.128;24.750;2023-01-08T16:31:09;99.03;;;32.72;;
32874;SDS011;40468;42.128;24.750;2023-01-08T16:32:41;99.40;;;33.53;;
32874;SDS011;40468;42.128;24.750;2023-01-08T16:34:13;106.85;;;35.60;;
32874;SDS011;40468;42.128;24.750;2023-01-08T16:35:54;171.30;;;62.30;;
32874;SDS011;40468;42.128;24.750;2023-01-08T16:37:26;133.23;;;48.22;;
32874;SDS011;40468;42.128;24.750;2023-01-08T16:38:58;99.20;;;38.30;;
32874;SDS011;40468;42.128;24.750;2023-01-08T16:40:31;79.72;;;32.17;;
32874;SDS011;40468;42.128;24.750;2023-01-08T16:42:04;62.17;;;26.42;;
32874;SDS011;40468;42.128;24.750;2023-01-08T16:43:37;52.25;;;22.25;;
32874;SDS011;40468;42.128;24.750;2023-01-08T16:45:10;61.30;;;23.23;;
32874;SDS011;40468;42.128;24.750;2023-01-08T16:46:42;49.33;;;21.23;;
32874;SDS011;40468;42.128;24.750;2023-01-08T16:48:14;49.38;;;21.65;;
32874;SDS011;40468;42.128;24.750;2023-01-08T16:49:46;46.50;;;21.55;;
32874;SDS011;40468;42.128;24.750;2023-01-08T16:51:19;43.42;;;22.88;;
32874;SDS011;40468;42.128;24.750;2023-01-08T16:52:51;52.15;;;23.63;;
32874;SDS011;40468;42.128;24.750;2023-01-08T16:54:23;47.50;;;20.38;;
32874;SDS011;40468;42.128;24.750;2023-01-08T16:55:57;38.15;;;19.15;;
32874;SDS011;40468;42.128;24.750;2023-01-08T16:59:02;35.47;;;16.20;;
32874;SDS011;40468;42.128;24.750;2023-01-08T17:00:35;32.95;;;16.05;;
32874;SDS011;40468;42.128;24.750;2023-01-08T17:02:13;38.38;;;15.73;;